Time;durP1;ratioP1;P1;durP2;ratioP2;P2;SDS_P1;SDS_P2;PMS_P1;PMS_P2;Temp;Humidity;BMP_temperature;BMP_pressure;BME280_temperature;BME280_humidity;BME280_pressure;Samples;Min_cycle;Max_cycle;Signal;HPM_P1;HPM_P2
2021/09/26 00:01:48;;;;;;;10.02;6.07;;;;;;;;;;5008583;28;20081;-71
2021/09/26 00:04:14;;;;;;;12.82;6.50;;;;;;;;;;5008210;28;20026;-72
2021/09/26 00:06:40;;;;;;;11.70;6.13;;;;;;;;;;5009303;28;20085;-71
2021/09/26 00:09:06;;;;;;;8.43;6.60;;;;;;;;;;5006687;28;20030;-71
2021/09/26 00:11:32;;;;;;;9.23;5.65;;;;;;;;;;5016417;28;20026;-71
2021/09/26 00:13:59;;;;;;;9.88;6.22;;;;;;;;;;5006730;28;20436;-72
2021/09/26 00:16:25;;;;;;;8.43;5.97;;;;;;;;;;5015551;28;20025;-72
2021/09/26 00:18:51;;;;;;;9.38;6.10;;;;;;;;;;5011054;28;20022;-71
2021/09/26 00:21:17;;;;;;;8.02;5.90;;;;;;;;;;5000971;28;20038;-71
2021/09/26 00:23:43;;;;;;;11.40;6.40;;;;;;;;;;5018919;28;20045;-71
2021/09/26 00:26:09;;;;;;;10.07;6.43;;;;;;;;;;5020796;28;20021;-71
2021/09/26 00:28:36;;;;;;;9.02;6.72;;;;;;;;;;5008313;28;20019;-71
2021/09/26 00:31:03;;;;;;;11.18;6.60;;;;;;;;;;5001474;28;20058;-72
2021/09/26 00:33:29;;;;;;;11.48;6.35;;;;;;;;;;5014050;28;20038;-72
2021/09/26 00:35:55;;;;;;;10.20;6.30;;;;;;;;;;5040406;28;20010;-71
2021/09/26 00:38:21;;;;;;;8.30;6.22;;;;;;;;;;5032182;28;20089;-72
2021/09/26 00:40:48;;;;;;;8.98;6.53;;;;;;;;;;5017550;28;20006;-71
2021/09/26 00:43:14;;;;;;;10.35;6.38;;;;;;;;;;5017105;28;20041;-71
2021/09/26 00:45:40;;;;;;;9.73;6.07;;;;;;;;;;5017336;28;20039;-71
2021/09/26 00:48:06;;;;;;;8.90;6.35;;;;;;;;;;5017155;28;20030;-71
2021/09/26 00:50:32;;;;;;;11.45;6.95;;;;;;;;;;5013810;28;20028;-72
2021/09/26 00:52:58;;;;;;;10.02;6.60;;;;;;;;;;5013712;28;20038;-72
2021/09/26 00:55:24;;;;;;;10.63;6.40;;;;;;;;;;5008064;28;20014;-71
2021/09/26 00:57:51;;;;;;;11.40;6.68;;;;;;;;;;5012503;28;20034;-71
2021/09/26 01:00:18;;;;;;;11.63;6.80;;;;;;;;;;5016190;28;20018;-72
2021/09/26 01:02:44;;;;;;;9.85;6.82;;;;;;;;;;5013074;28;20048;-71
2021/09/26 01:05:15;;;;;;;10.13;6.03;;;;;;;;;;5012944;28;20031;-72
2021/09/26 01:08:03;;;;;;;9.98;6.55;;;;;;;;;;5011922;28;20121;-71
2021/09/26 01:10:42;;;;;;;10.00;6.80;;;;;;;;;;5012131;28;20034;-72
2021/09/26 01:13:15;;;;;;;8.95;6.28;;;;;;;;;;5016232;28;20046;-71
2021/09/26 01:15:58;;;;;;;10.73;7.10;;;;;;;;;;5012397;28;20081;-72
2021/09/26 01:18:44;;;;;;;10.48;6.70;;;;;;;;;;5015838;28;20073;-71
2021/09/26 01:21:46;;;;;;;8.57;6.85;;;;;;;;;;5012261;28;20019;-71
2021/09/26 01:24:15;;;;;;;13.73;7.47;;;;;;;;;;4974324;28;20043;-71
2021/09/26 01:26:45;;;;;;;7.55;6.55;;;;;;;;;;4975282;28;20065;-71
2021/09/26 01:29:11;;;;;;;11.88;6.95;;;;;;;;;;4968783;29;20019;-71
2021/09/26 01:31:44;;;;;;;9.60;6.70;;;;;;;;;;4973658;28;20075;-71
2021/09/26 01:34:10;;;;;;;14.95;7.05;;;;;;;;;;4976149;28;20126;-71
2021/09/26 01:36:39;;;;;;;9.00;6.80;;;;;;;;;;4973120;28;20325;-71
2021/09/26 01:39:07;;;;;;;12.23;7.10;;;;;;;;;;4974257;28;20047;-71
2021/09/26 01:41:36;;;;;;;9.98;6.72;;;;;;;;;;4961391;28;20058;-72
2021/09/26 01:44:05;;;;;;;7.85;6.68;;;;;;;;;;4964138;29;20039;-72
2021/09/26 01:46:35;;;;;;;8.55;6.90;;;;;;;;;;4972603;28;20043;-71
2021/09/26 01:49:04;;;;;;;8.88;7.03;;;;;;;;;;4967750;28;20032;-71
2021/09/26 01:51:37;;;;;;;11.30;7.07;;;;;;;;;;4968815;28;20043;-71
2021/09/26 01:54:04;;;;;;;8.57;6.82;;;;;;;;;;4959281;28;20075;-72
2021/09/26 01:56:30;;;;;;;10.60;7.15;;;;;;;;;;4965288;28;20033;-72
2021/09/26 01:58:57;;;;;;;9.52;7.32;;;;;;;;;;5006988;28;20046;-72
2021/09/26 02:01:23;;;;;;;8.70;6.57;;;;;;;;;;5005805;28;20026;-72
2021/09/26 02:03:49;;;;;;;11.48;6.75;;;;;;;;;;5010134;28;20050;-71
2021/09/26 02:06:16;;;;;;;9.30;6.88;;;;;;;;;;5010155;28;20061;-71
2021/09/26 02:08:42;;;;;;;9.77;6.78;;;;;;;;;;5011422;28;20029;-71
2021/09/26 02:11:10;;;;;;;7.68;6.32;;;;;;;;;;5012114;28;20118;-71
2021/09/26 02:13:37;;;;;;;9.00;7.05;;;;;;;;;;5024416;28;20036;-72
2021/09/26 02:16:03;;;;;;;10.43;6.68;;;;;;;;;;5004935;28;20405;-71
2021/09/26 02:18:31;;;;;;;11.70;6.55;;;;;;;;;;5009613;28;20017;-71
2021/09/26 02:20:58;;;;;;;9.38;6.18;;;;;;;;;;5011586;28;20010;-71
2021/09/26 02:23:26;;;;;;;12.52;7.25;;;;;;;;;;4995823;28;20036;-72
2021/09/26 02:25:52;;;;;;;9.15;7.03;;;;;;;;;;5005745;28;20668;-72
2021/09/26 02:28:19;;;;;;;9.50;6.60;;;;;;;;;;5008045;28;20132;-73
2021/09/26 02:30:46;;;;;;;8.52;6.18;;;;;;;;;;5006506;28;20065;-72
2021/09/26 02:33:12;;;;;;;15.73;6.85;;;;;;;;;;5004854;28;20042;-72
2021/09/26 02:35:38;;;;;;;8.98;6.75;;;;;;;;;;5003533;28;20038;-72
2021/09/26 02:38:04;;;;;;;8.35;6.85;;;;;;;;;;4998178;28;20039;-72
2021/09/26 02:40:31;;;;;;;7.03;6.05;;;;;;;;;;5000247;28;20041;-72
2021/09/26 02:42:57;;;;;;;14.35;7.43;;;;;;;;;;4985464;28;20408;-72
2021/09/26 02:45:27;;;;;;;7.93;6.70;;;;;;;;;;5012404;28;20038;-72
2021/09/26 02:48:01;;;;;;;8.50;6.95;;;;;;;;;;5003515;28;20047;-72
2021/09/26 02:50:27;;;;;;;9.93;6.78;;;;;;;;;;5002119;28;20053;-72
2021/09/26 02:52:54;;;;;;;10.13;6.53;;;;;;;;;;4997841;28;20027;-72
2021/09/26 02:55:21;;;;;;;10.60;6.72;;;;;;;;;;4997808;28;20508;-72
2021/09/26 02:57:47;;;;;;;9.93;7.38;;;;;;;;;;5004479;28;20058;-72
2021/09/26 03:00:13;;;;;;;12.02;6.88;;;;;;;;;;5005399;28;20034;-72
2021/09/26 03:02:39;;;;;;;8.02;7.20;;;;;;;;;;5002583;28;20138;-72
2021/09/26 03:05:07;;;;;;;11.68;6.90;;;;;;;;;;5010857;28;20590;-72
2021/09/26 03:07:33;;;;;;;10.23;6.10;;;;;;;;;;5010557;28;20044;-72
2021/09/26 03:09:59;;;;;;;8.35;6.55;;;;;;;;;;5007510;28;20034;-72
2021/09/26 03:12:25;;;;;;;9.35;7.00;;;;;;;;;;5010544;28;20033;-72
2021/09/26 03:14:52;;;;;;;11.52;6.68;;;;;;;;;;4999800;28;20017;-72
2021/09/26 03:17:18;;;;;;;11.73;6.85;;;;;;;;;;5011297;28;20030;-72
2021/09/26 03:19:45;;;;;;;8.50;6.93;;;;;;;;;;5006060;28;20041;-72
2021/09/26 03:22:11;;;;;;;10.52;7.25;;;;;;;;;;5002567;28;20065;-72
2021/09/26 03:24:38;;;;;;;10.50;6.88;;;;;;;;;;5010262;28;20054;-72
2021/09/26 03:27:09;;;;;;;8.52;6.80;;;;;;;;;;5011244;28;20088;-72
2021/09/26 03:29:35;;;;;;;11.20;7.03;;;;;;;;;;5009980;28;20480;-72
2021/09/26 03:32:01;;;;;;;13.10;6.75;;;;;;;;;;5010879;28;20022;-72
2021/09/26 03:34:27;;;;;;;13.25;6.82;;;;;;;;;;5009054;28;20069;-71
2021/09/26 03:36:54;;;;;;;9.90;6.93;;;;;;;;;;5008731;28;20050;-71
2021/09/26 03:39:20;;;;;;;11.05;6.82;;;;;;;;;;5010831;28;20038;-71
2021/09/26 03:41:46;;;;;;;8.27;6.25;;;;;;;;;;5007534;28;20017;-72
2021/09/26 03:44:12;;;;;;;8.73;6.65;;;;;;;;;;5007127;28;20010;-71
2021/09/26 03:46:38;;;;;;;7.93;6.15;;;;;;;;;;5012885;28;20034;-71
2021/09/26 03:49:05;;;;;;;9.77;7.03;;;;;;;;;;5007444;28;20034;-72
2021/09/26 03:51:31;;;;;;;12.02;6.55;;;;;;;;;;5004212;28;20014;-72
2021/09/26 03:53:58;;;;;;;13.80;6.93;;;;;;;;;;5009790;28;20045;-72
2021/09/26 03:56:26;;;;;;;11.23;6.82;;;;;;;;;;5018440;28;20013;-72
2021/09/26 03:58:52;;;;;;;10.68;7.43;;;;;;;;;;5012535;28;20150;-72
2021/09/26 04:01:18;;;;;;;9.43;7.45;;;;;;;;;;5014716;28;20103;-72
2021/09/26 04:03:45;;;;;;;12.35;7.45;;;;;;;;;;5006174;28;20062;-72
2021/09/26 04:06:11;;;;;;;13.50;8.20;;;;;;;;;;5011322;28;20061;-72
2021/09/26 04:08:38;;;;;;;12.98;8.30;;;;;;;;;;5013222;28;20031;-71
2021/09/26 04:11:05;;;;;;;13.88;11.32;;;;;;;;;;5012665;28;20033;-71
2021/09/26 04:13:31;;;;;;;12.48;9.88;;;;;;;;;;5014099;28;20045;-72
2021/09/26 04:15:57;;;;;;;13.98;9.00;;;;;;;;;;4997084;28;20045;-72
2021/09/26 04:18:23;;;;;;;14.80;9.02;;;;;;;;;;5014132;28;20503;-72
2021/09/26 04:20:49;;;;;;;9.77;7.72;;;;;;;;;;5011392;28;20086;-71
2021/09/26 04:23:15;;;;;;;14.25;8.23;;;;;;;;;;5004898;28;20042;-72
2021/09/26 04:25:42;;;;;;;11.63;8.18;;;;;;;;;;5007908;28;20123;-71
2021/09/26 04:28:08;;;;;;;18.52;9.30;;;;;;;;;;5014717;28;20038;-72
2021/09/26 04:30:48;;;;;;;14.13;9.25;;;;;;;;;;5004679;28;20058;-72
2021/09/26 04:33:16;;;;;;;14.20;9.15;;;;;;;;;;5007700;28;20078;-72
2021/09/26 04:35:42;;;;;;;11.40;8.50;;;;;;;;;;5009796;28;20032;-71
2021/09/26 04:38:08;;;;;;;13.23;9.55;;;;;;;;;;5018433;28;20035;-72
2021/09/26 04:40:34;;;;;;;14.82;9.32;;;;;;;;;;5006497;28;20384;-71
2021/09/26 04:43:00;;;;;;;15.68;9.60;;;;;;;;;;5008245;28;20031;-72
2021/09/26 04:45:26;;;;;;;17.45;9.65;;;;;;;;;;5011637;28;20103;-72
2021/09/26 04:47:53;;;;;;;13.18;9.05;;;;;;;;;;5005572;28;20038;-71
2021/09/26 04:50:19;;;;;;;17.23;10.35;;;;;;;;;;5008859;28;20035;-71
2021/09/26 04:52:45;;;;;;;14.00;10.27;;;;;;;;;;5006644;28;20029;-72
2021/09/26 04:55:11;;;;;;;16.55;10.35;;;;;;;;;;5013944;28;20559;-71
2021/09/26 04:57:37;;;;;;;14.93;9.68;;;;;;;;;;5011396;28;20034;-71
2021/09/26 05:00:11;;;;;;;13.50;10.63;;;;;;;;;;4999663;28;20034;-72
2021/09/26 05:02:45;;;;;;;14.77;10.10;;;;;;;;;;5003228;28;20046;-80
2021/09/26 05:05:32;;;;;;;16.70;10.80;;;;;;;;;;5012331;28;20014;-78
2021/09/26 05:08:19;;;;;;;15.60;10.57;;;;;;;;;;4958216;28;20043;-73
2021/09/26 05:10:48;;;;;;;16.00;10.48;;;;;;;;;;4958987;28;20552;-73
2021/09/26 05:13:14;;;;;;;15.82;10.57;;;;;;;;;;4963217;29;20042;-71
2021/09/26 05:15:40;;;;;;;15.00;10.95;;;;;;;;;;4963536;29;20521;-75
2021/09/26 05:18:06;;;;;;;16.20;10.70;;;;;;;;;;4958558;29;20175;-72
2021/09/26 05:20:32;;;;;;;13.35;10.07;;;;;;;;;;4959018;29;20037;-73
2021/09/26 05:22:58;;;;;;;14.10;10.25;;;;;;;;;;4936421;28;20047;-73
2021/09/26 05:25:29;;;;;;;18.20;10.85;;;;;;;;;;4954191;28;20395;-71
2021/09/26 05:27:55;;;;;;;13.07;10.40;;;;;;;;;;4950109;29;20039;-73
2021/09/26 05:30:22;;;;;;;14.98;10.55;;;;;;;;;;4948011;28;20127;-73
2021/09/26 05:32:54;;;;;;;15.98;10.20;;;;;;;;;;4961450;28;20051;-76
2021/09/26 05:35:20;;;;;;;15.82;9.82;;;;;;;;;;4962427;29;20058;-71
2021/09/26 05:37:46;;;;;;;17.10;10.30;;;;;;;;;;4963781;29;20038;-71
2021/09/26 05:40:12;;;;;;;14.00;9.07;;;;;;;;;;4933327;28;20026;-69
2021/09/26 05:42:38;;;;;;;13.50;9.10;;;;;;;;;;4953677;28;20082;-74
2021/09/26 05:45:05;;;;;;;15.30;8.27;;;;;;;;;;4959544;29;20405;-72
2021/09/26 05:47:31;;;;;;;12.70;8.50;;;;;;;;;;4954999;29;20046;-70
2021/09/26 05:50:02;;;;;;;13.02;7.93;;;;;;;;;;4957879;28;20034;-79
2021/09/26 05:52:29;;;;;;;11.25;8.02;;;;;;;;;;4978933;28;20496;-75
2021/09/26 05:54:55;;;;;;;10.32;8.02;;;;;;;;;;4988661;28;20085;-79
2021/09/26 05:57:43;;;;;;;11.38;7.60;;;;;;;;;;4976637;28;20030;-84
2021/09/26 06:00:12;;;;;;;11.10;8.48;;;;;;;;;;4997372;28;20037;-85
2021/09/26 06:02:38;;;;;;;14.68;8.75;;;;;;;;;;4995948;28;20608;-74
2021/09/26 06:05:08;;;;;;;12.52;9.18;;;;;;;;;;4993576;28;20045;-78
2021/09/26 06:07:34;;;;;;;13.73;9.10;;;;;;;;;;4991202;28;20203;-77
2021/09/26 06:10:01;;;;;;;11.38;8.50;;;;;;;;;;4992390;28;20151;-73
2021/09/26 06:12:27;;;;;;;14.90;9.85;;;;;;;;;;4991792;28;20117;-76
2021/09/26 06:14:56;;;;;;;15.05;10.35;;;;;;;;;;4999045;28;20057;-71
2021/09/26 06:17:22;;;;;;;13.43;9.18;;;;;;;;;;4973506;28;20089;-75
2021/09/26 06:19:53;;;;;;;12.70;9.63;;;;;;;;;;4993019;28;20026;-73
2021/09/26 06:22:20;;;;;;;17.92;8.98;;;;;;;;;;4992096;28;20070;-76
2021/09/26 06:24:46;;;;;;;12.30;8.80;;;;;;;;;;4994030;28;20112;-83
2021/09/26 06:27:15;;;;;;;15.88;9.43;;;;;;;;;;4976878;28;20054;-84
2021/09/26 06:29:41;;;;;;;11.45;8.57;;;;;;;;;;4993079;28;20142;-76
2021/09/26 06:32:08;;;;;;;11.88;8.77;;;;;;;;;;4994282;28;20480;-76
2021/09/26 06:34:34;;;;;;;12.13;8.52;;;;;;;;;;4990211;28;20030;-77
2021/09/26 06:37:00;;;;;;;12.45;7.53;;;;;;;;;;4991845;28;20031;-71
2021/09/26 06:39:26;;;;;;;12.27;7.20;;;;;;;;;;4990375;28;20037;-76
2021/09/26 06:41:52;;;;;;;14.45;9.30;;;;;;;;;;4991835;28;20369;-81
2021/09/26 06:44:18;;;;;;;15.65;8.05;;;;;;;;;;4990638;28;20031;-79
2021/09/26 06:46:46;;;;;;;9.68;6.80;;;;;;;;;;4991794;28;20037;-85
2021/09/26 06:49:12;;;;;;;10.52;7.07;;;;;;;;;;4993571;28;20066;-78
2021/09/26 06:51:38;;;;;;;11.65;7.97;;;;;;;;;;4990725;28;20026;-70
2021/09/26 06:54:07;;;;;;;12.80;8.60;;;;;;;;;;4991721;28;20053;-72
2021/09/26 06:56:33;;;;;;;20.83;9.52;;;;;;;;;;4992384;28;20034;-76
2021/09/26 06:58:59;;;;;;;13.68;8.88;;;;;;;;;;4993339;28;20022;-73
2021/09/26 07:01:25;;;;;;;14.30;9.10;;;;;;;;;;4992125;28;20026;-72
2021/09/26 07:03:51;;;;;;;14.98;9.25;;;;;;;;;;4994980;28;20070;-74
2021/09/26 07:06:18;;;;;;;14.85;8.32;;;;;;;;;;4988441;28;20026;-80
2021/09/26 07:08:44;;;;;;;11.60;7.93;;;;;;;;;;4982473;28;20528;-72
2021/09/26 07:11:10;;;;;;;13.90;7.38;;;;;;;;;;4995335;28;20022;-74
2021/09/26 07:13:38;;;;;;;13.38;7.32;;;;;;;;;;4994606;28;20469;-77
2021/09/26 07:16:04;;;;;;;10.82;7.72;;;;;;;;;;4987676;28;20043;-86
2021/09/26 07:18:30;;;;;;;15.25;7.93;;;;;;;;;;4993593;28;20034;-77
2021/09/26 07:20:56;;;;;;;16.35;10.43;;;;;;;;;;4991121;28;20030;-82
2021/09/26 07:23:25;;;;;;;49.38;32.22;;;;;;;;;;4993514;28;20080;-81
2021/09/26 07:25:51;;;;;;;39.75;26.27;;;;;;;;;;4989875;28;20485;-78
2021/09/26 07:28:18;;;;;;;46.67;30.10;;;;;;;;;;4992311;28;20034;-74
2021/09/26 07:30:44;;;;;;;54.42;32.90;;;;;;;;;;4989991;28;20089;-70
2021/09/26 07:33:10;;;;;;;27.75;18.70;;;;;;;;;;4995248;28;20391;-73
2021/09/26 07:35:36;;;;;;;19.50;13.18;;;;;;;;;;4995371;28;20481;-74
2021/09/26 07:38:03;;;;;;;16.52;9.82;;;;;;;;;;4996027;28;20113;-79
2021/09/26 07:40:31;;;;;;;14.10;7.85;;;;;;;;;;4998073;28;20025;-76
2021/09/26 07:42:57;;;;;;;15.68;8.85;;;;;;;;;;4996753;28;20623;-73
2021/09/26 07:45:25;;;;;;;13.38;9.20;;;;;;;;;;5000232;28;20387;-78
2021/09/26 07:47:51;;;;;;;13.80;9.00;;;;;;;;;;4992452;28;20432;-87
2021/09/26 07:50:24;;;;;;;13.43;9.18;;;;;;;;;;4999595;28;20080;-87
2021/09/26 07:52:50;;;;;;;12.50;9.35;;;;;;;;;;4993026;28;20056;-81
2021/09/26 07:55:16;;;;;;;16.70;8.82;;;;;;;;;;4994057;28;20026;-72
2021/09/26 07:57:42;;;;;;;12.82;8.35;;;;;;;;;;4994352;28;20029;-74
2021/09/26 08:00:08;;;;;;;11.88;7.60;;;;;;;;;;4993370;28;20034;-89
2021/09/26 08:02:34;;;;;;;9.48;7.28;;;;;;;;;;4989614;28;20129;-81
2021/09/26 08:05:00;;;;;;;11.95;7.47;;;;;;;;;;4991859;28;20112;-79
2021/09/26 08:07:26;;;;;;;11.30;7.53;;;;;;;;;;4992499;28;20065;-79
2021/09/26 08:09:53;;;;;;;9.38;6.80;;;;;;;;;;4992926;28;20034;-84
2021/09/26 08:12:20;;;;;;;13.13;7.20;;;;;;;;;;4999364;28;20037;-87
2021/09/26 08:14:46;;;;;;;12.18;7.25;;;;;;;;;;4981642;28;20029;-84
2021/09/26 08:17:12;;;;;;;13.15;7.07;;;;;;;;;;4994783;28;20034;-73
2021/09/26 08:19:40;;;;;;;10.77;6.90;;;;;;;;;;4998264;28;20022;-77
2021/09/26 08:22:07;;;;;;;10.75;6.88;;;;;;;;;;4994158;28;20066;-88
2021/09/26 08:24:34;;;;;;;14.13;7.30;;;;;;;;;;4992401;28;20037;-83
2021/09/26 08:27:01;;;;;;;9.52;6.20;;;;;;;;;;4992207;28;20034;-80
2021/09/26 08:29:27;;;;;;;12.00;6.78;;;;;;;;;;4994861;28;20034;-79
2021/09/26 08:31:53;;;;;;;9.18;6.38;;;;;;;;;;4999031;28;20022;-88
2021/09/26 08:34:20;;;;;;;10.15;6.68;;;;;;;;;;4976393;28;20520;-81
2021/09/26 08:36:46;;;;;;;12.18;7.00;;;;;;;;;;4994400;28;20026;-77
2021/09/26 08:39:12;;;;;;;12.70;6.80;;;;;;;;;;4995237;28;20034;-91
2021/09/26 08:41:38;;;;;;;10.35;5.97;;;;;;;;;;4995834;28;20031;-78
2021/09/26 08:44:07;;;;;;;10.60;6.30;;;;;;;;;;4991874;28;20026;-83
2021/09/26 08:46:33;;;;;;;7.57;5.97;;;;;;;;;;4991167;28;20122;-88
2021/09/26 08:48:59;;;;;;;11.40;5.57;;;;;;;;;;4996287;28;20108;-82
2021/09/26 08:51:25;;;;;;;12.10;7.03;;;;;;;;;;4991253;28;20025;-83
2021/09/26 08:53:52;;;;;;;9.10;6.18;;;;;;;;;;4991186;28;20031;-83
2021/09/26 08:56:20;;;;;;;8.45;5.75;;;;;;;;;;4991599;28;20113;-84
2021/09/26 08:58:47;;;;;;;8.63;5.95;;;;;;;;;;4991829;28;20077;-81
2021/09/26 09:01:13;;;;;;;12.63;8.63;;;;;;;;;;4994241;28;20555;-85
2021/09/26 09:03:39;;;;;;;16.73;12.65;;;;;;;;;;4996383;28;20133;-92
2021/09/26 09:06:05;;;;;;;10.85;6.38;;;;;;;;;;4991909;28;20105;-90
2021/09/26 09:08:31;;;;;;;13.63;6.63;;;;;;;;;;4994024;28;20050;-85
2021/09/26 09:11:01;;;;;;;8.38;6.47;;;;;;;;;;4996469;28;20049;-90
2021/09/26 09:13:37;;;;;;;13.23;6.88;;;;;;;;;;4993701;28;20037;-87
2021/09/26 09:16:04;;;;;;;8.90;5.88;;;;;;;;;;5000736;28;20114;-85
2021/09/26 09:18:36;;;;;;;7.95;6.50;;;;;;;;;;4989259;28;20031;-89
2021/09/26 09:21:14;;;;;;;11.63;7.63;;;;;;;;;;4979082;28;20023;-90
2021/09/26 09:23:42;;;;;;;28.65;7.90;;;;;;;;;;4994473;28;20030;-83
2021/09/26 09:26:08;;;;;;;8.52;5.95;;;;;;;;;;4991827;28;20034;-85
2021/09/26 09:28:39;;;;;;;8.80;5.80;;;;;;;;;;4991874;28;20045;-84
2021/09/26 09:31:06;;;;;;;10.38;5.97;;;;;;;;;;4992297;28;20073;-84
2021/09/26 09:33:45;;;;;;;14.00;6.53;;;;;;;;;;4972383;28;20053;-86
2021/09/26 09:36:21;;;;;;;8.95;5.55;;;;;;;;;;4994996;28;20037;-86
2021/09/26 09:38:49;;;;;;;9.25;5.70;;;;;;;;;;4988223;28;20026;-86
2021/09/26 09:41:31;;;;;;;11.75;6.55;;;;;;;;;;4992033;28;20077;-89
2021/09/26 09:43:58;;;;;;;16.00;6.63;;;;;;;;;;4988649;28;20498;-89
2021/09/26 09:46:40;;;;;;;12.18;6.13;;;;;;;;;;4975639;28;20062;-87
2021/09/26 09:49:17;;;;;;;9.18;6.43;;;;;;;;;;4972086;28;21728;-82
2021/09/26 09:51:53;;;;;;;9.27;5.95;;;;;;;;;;4985243;28;20649;-85
2021/09/26 09:54:29;;;;;;;12.45;6.07;;;;;;;;;;4972914;28;20062;-86
2021/09/26 09:56:56;;;;;;;10.90;6.40;;;;;;;;;;4991539;28;20102;-86
2021/09/26 09:59:36;;;;;;;12.45;6.15;;;;;;;;;;4992309;28;20038;-80
2021/09/26 10:02:03;;;;;;;10.18;6.00;;;;;;;;;;4970646;28;20051;-86
2021/09/26 10:04:37;;;;;;;9.63;6.13;;;;;;;;;;4974329;28;20036;-82
2021/09/26 10:07:16;;;;;;;9.25;5.78;;;;;;;;;;4994905;28;20022;-88
2021/09/26 10:09:45;;;;;;;14.38;6.43;;;;;;;;;;4988996;28;20488;-92
2021/09/26 10:12:18;;;;;;;9.52;5.35;;;;;;;;;;4975186;28;20030;-86
2021/09/26 10:14:45;;;;;;;9.18;5.72;;;;;;;;;;4990490;28;20030;-85
2021/09/26 10:17:11;;;;;;;13.45;6.20;;;;;;;;;;4975191;28;20026;-87
2021/09/26 10:19:37;;;;;;;18.30;6.53;;;;;;;;;;4991060;28;20061;-89
2021/09/26 10:22:04;;;;;;;9.77;6.47;;;;;;;;;;4993653;28;20031;-89
2021/09/26 10:24:32;;;;;;;10.38;6.15;;;;;;;;;;4992395;28;20041;-91
2021/09/26 10:27:01;;;;;;;9.25;6.03;;;;;;;;;;4989462;28;20057;-80
2021/09/26 10:29:31;;;;;;;10.73;6.20;;;;;;;;;;4991294;28;20069;-83
2021/09/26 10:31:59;;;;;;;9.40;5.70;;;;;;;;;;4996660;28;20033;-84
2021/09/26 10:34:28;;;;;;;9.18;6.25;;;;;;;;;;4993893;28;20392;-89
2021/09/26 10:36:54;;;;;;;9.23;5.90;;;;;;;;;;4988067;28;20022;-87
2021/09/26 10:39:20;;;;;;;10.30;6.35;;;;;;;;;;4993365;28;20029;-85
2021/09/26 10:42:05;;;;;;;10.50;6.10;;;;;;;;;;4994473;28;20057;-88
2021/09/26 10:44:31;;;;;;;8.73;5.78;;;;;;;;;;4992019;28;20085;-82
2021/09/26 10:47:07;;;;;;;8.55;5.97;;;;;;;;;;4995228;28;20110;-84
2021/09/26 10:49:40;;;;;;;11.70;6.20;;;;;;;;;;4987653;28;20056;-78
2021/09/26 10:52:21;;;;;;;8.32;6.25;;;;;;;;;;4993382;28;20018;-78
2021/09/26 10:54:47;;;;;;;9.80;6.53;;;;;;;;;;4989871;28;20033;-78
2021/09/26 10:57:20;;;;;;;11.80;6.10;;;;;;;;;;4990463;28;20024;-86
2021/09/26 10:59:49;;;;;;;17.33;6.90;;;;;;;;;;4994396;28;20018;-78
2021/09/26 11:02:25;;;;;;;8.60;6.00;;;;;;;;;;4989852;28;20057;-73
2021/09/26 11:05:01;;;;;;;9.60;6.03;;;;;;;;;;4994845;28;20488;-77
2021/09/26 11:07:28;;;;;;;11.48;5.30;;;;;;;;;;4995660;28;20037;-74
2021/09/26 11:09:55;;;;;;;10.40;5.72;;;;;;;;;;4995299;28;20034;-79
2021/09/26 11:12:51;;;;;;;8.77;5.85;;;;;;;;;;4995310;28;20477;-77
2021/09/26 11:15:18;;;;;;;12.48;5.80;;;;;;;;;;4934445;29;20051;-79
2021/09/26 11:17:46;;;;;;;10.60;5.60;;;;;;;;;;4937963;29;20488;-85
2021/09/26 11:20:32;;;;;;;9.23;5.30;;;;;;;;;;4933141;29;20040;-86
2021/09/26 11:23:10;;;;;;;22.90;5.78;;;;;;;;;;4938055;29;20028;-76
2021/09/26 11:25:54;;;;;;;9.35;5.60;;;;;;;;;;4938876;29;20126;-82
2021/09/26 11:28:23;;;;;;;7.53;4.95;;;;;;;;;;4935798;29;20047;-71
2021/09/26 11:30:49;;;;;;;8.90;5.10;;;;;;;;;;4936553;29;20038;-85
2021/09/26 11:33:16;;;;;;;8.77;5.25;;;;;;;;;;4939651;29;20054;-84
2021/09/26 11:35:42;;;;;;;8.15;5.38;;;;;;;;;;4939237;29;20024;-89
2021/09/26 11:38:09;;;;;;;6.38;4.75;;;;;;;;;;4936268;29;20039;-74
2021/09/26 11:40:52;;;;;;;11.75;5.35;;;;;;;;;;4938358;29;20028;-88
2021/09/26 11:43:23;;;;;;;8.75;5.20;;;;;;;;;;4932256;29;20032;-88
2021/09/26 11:45:50;;;;;;;9.02;5.80;;;;;;;;;;4933177;29;20062;-72
2021/09/26 11:48:16;;;;;;;10.15;4.95;;;;;;;;;;4934405;29;20047;-86
2021/09/26 11:50:43;;;;;;;8.10;4.85;;;;;;;;;;4941038;28;20063;-78
2021/09/26 11:53:14;;;;;;;9.82;5.38;;;;;;;;;;4994122;28;20050;-89
2021/09/26 11:55:41;;;;;;;9.32;4.90;;;;;;;;;;4992006;28;20467;-88
2021/09/26 11:58:08;;;;;;;9.48;5.35;;;;;;;;;;4995056;28;20034;-85
2021/09/26 12:00:37;;;;;;;9.55;5.18;;;;;;;;;;4994277;28;20548;-78
2021/09/26 12:03:23;;;;;;;11.88;5.75;;;;;;;;;;4996444;28;20057;-78
2021/09/26 12:05:49;;;;;;;8.30;5.15;;;;;;;;;;4994048;28;20054;-75
2021/09/26 12:08:15;;;;;;;6.68;4.72;;;;;;;;;;4996902;28;20030;-91
2021/09/26 12:10:44;;;;;;;10.10;5.18;;;;;;;;;;4998648;28;20022;-88
2021/09/26 12:13:11;;;;;;;9.73;5.28;;;;;;;;;;5003811;28;20428;-88
2021/09/26 12:15:38;;;;;;;12.10;5.43;;;;;;;;;;4999751;28;20035;-78
2021/09/26 12:18:04;;;;;;;10.30;6.05;;;;;;;;;;4997317;28;20063;-90
2021/09/26 12:20:30;;;;;;;10.02;6.40;;;;;;;;;;4995039;28;20026;-87
2021/09/26 12:23:00;;;;;;;10.27;6.07;;;;;;;;;;4991191;28;20019;-82
2021/09/26 12:25:26;;;;;;;10.05;5.30;;;;;;;;;;4993847;28;20802;-75
2021/09/26 12:28:00;;;;;;;10.13;5.15;;;;;;;;;;4992996;28;20030;-90
2021/09/26 12:30:26;;;;;;;10.40;5.50;;;;;;;;;;4998416;28;20033;-86
2021/09/26 12:33:03;;;;;;;8.88;5.90;;;;;;;;;;4990376;28;20023;-73
2021/09/26 12:35:32;;;;;;;8.40;5.45;;;;;;;;;;4993375;28;20026;-74
2021/09/26 12:38:00;;;;;;;11.13;5.15;;;;;;;;;;4998451;28;20026;-87
2021/09/26 12:40:29;;;;;;;9.65;5.47;;;;;;;;;;4993203;28;20026;-70
2021/09/26 12:42:56;;;;;;;7.88;5.10;;;;;;;;;;4998710;28;21737;-75
2021/09/26 12:45:39;;;;;;;6.78;5.20;;;;;;;;;;4996190;28;20333;-83
2021/09/26 12:48:07;;;;;;;9.82;4.88;;;;;;;;;;4993867;28;20487;-78
2021/09/26 12:50:33;;;;;;;8.80;5.05;;;;;;;;;;4999239;28;20515;-72
2021/09/26 12:52:59;;;;;;;12.50;6.32;;;;;;;;;;4996495;28;20099;-87
2021/09/26 12:55:28;;;;;;;19.80;6.32;;;;;;;;;;4994675;28;20022;-74
2021/09/26 12:57:54;;;;;;;13.02;5.78;;;;;;;;;;4994249;28;20022;-76
2021/09/26 13:00:21;;;;;;;9.98;5.35;;;;;;;;;;4994993;28;20118;-86
2021/09/26 13:02:52;;;;;;;10.18;5.47;;;;;;;;;;4995570;28;20397;-74
2021/09/26 13:05:30;;;;;;;7.05;4.97;;;;;;;;;;4994165;28;20030;-88
2021/09/26 13:08:00;;;;;;;6.72;4.80;;;;;;;;;;4992931;28;20026;-82
2021/09/26 13:10:26;;;;;;;12.55;4.95;;;;;;;;;;4994329;28;20077;-83
2021/09/26 13:12:54;;;;;;;7.43;5.20;;;;;;;;;;4994119;28;20065;-82
2021/09/26 13:15:26;;;;;;;7.68;5.10;;;;;;;;;;4986239;28;20039;-88
2021/09/26 13:18:15;;;;;;;11.45;5.15;;;;;;;;;;4990939;28;20026;-75
2021/09/26 13:20:41;;;;;;;10.70;5.50;;;;;;;;;;4994253;28;20034;-88
2021/09/26 13:23:24;;;;;;;8.35;5.38;;;;;;;;;;4994363;28;20019;-88
2021/09/26 13:25:51;;;;;;;8.80;5.32;;;;;;;;;;4993793;28;20033;-87
2021/09/26 13:28:19;;;;;;;10.10;5.40;;;;;;;;;;4993040;28;20065;-77
2021/09/26 13:30:48;;;;;;;8.38;5.25;;;;;;;;;;4992709;28;20037;-74
2021/09/26 13:33:30;;;;;;;12.93;5.53;;;;;;;;;;4992586;28;20026;-75
2021/09/26 13:36:05;;;;;;;8.10;5.80;;;;;;;;;;4976389;28;20084;-82
2021/09/26 13:38:34;;;;;;;9.15;5.65;;;;;;;;;;4994112;28;20073;-80
2021/09/26 13:41:08;;;;;;;8.27;5.68;;;;;;;;;;4993990;28;20539;-84
2021/09/26 13:43:36;;;;;;;6.90;5.13;;;;;;;;;;4994344;28;20799;-85
2021/09/26 13:46:03;;;;;;;8.00;5.20;;;;;;;;;;4994387;28;20508;-90
2021/09/26 13:48:29;;;;;;;12.57;5.82;;;;;;;;;;4993529;28;20030;-88
2021/09/26 13:50:56;;;;;;;10.07;5.47;;;;;;;;;;4994337;28;20025;-89
2021/09/26 13:53:24;;;;;;;10.43;5.65;;;;;;;;;;4992870;28;20072;-77
2021/09/26 13:55:50;;;;;;;8.63;5.72;;;;;;;;;;4994380;28;20072;-72
2021/09/26 13:58:17;;;;;;;8.13;5.60;;;;;;;;;;4998424;28;20061;-85
2021/09/26 14:00:44;;;;;;;9.05;6.10;;;;;;;;;;4998218;28;20045;-79
2021/09/26 14:03:10;;;;;;;20.88;6.10;;;;;;;;;;4995503;28;20046;-91
2021/09/26 14:05:37;;;;;;;10.00;5.95;;;;;;;;;;4974949;28;20038;-88
2021/09/26 14:08:04;;;;;;;14.77;6.00;;;;;;;;;;5002681;28;20518;-89
2021/09/26 14:10:30;;;;;;;8.35;5.82;;;;;;;;;;4998229;28;20053;-89
2021/09/26 14:12:56;;;;;;;10.07;6.00;;;;;;;;;;5002490;28;20542;-72
2021/09/26 14:15:22;;;;;;;10.05;5.88;;;;;;;;;;4998104;28;20370;-71
2021/09/26 14:17:51;;;;;;;11.40;5.50;;;;;;;;;;5000642;28;20477;-87
2021/09/26 14:20:17;;;;;;;12.55;6.22;;;;;;;;;;5001767;28;20022;-77
2021/09/26 14:22:46;;;;;;;14.10;5.90;;;;;;;;;;4993578;28;20109;-84
2021/09/26 14:25:12;;;;;;;8.90;5.80;;;;;;;;;;4994226;28;20011;-85
2021/09/26 14:27:38;;;;;;;9.75;5.90;;;;;;;;;;4995113;28;20369;-81
2021/09/26 14:30:05;;;;;;;8.48;5.75;;;;;;;;;;4998043;28;20034;-89
2021/09/26 14:32:31;;;;;;;11.23;5.82;;;;;;;;;;5007836;28;20031;-89
2021/09/26 14:34:58;;;;;;;11.07;5.65;;;;;;;;;;4996656;28;20022;-86
2021/09/26 14:37:26;;;;;;;7.70;5.70;;;;;;;;;;4995745;28;20060;-89
2021/09/26 14:39:53;;;;;;;8.30;5.72;;;;;;;;;;4993890;28;20105;-91
2021/09/26 14:42:19;;;;;;;9.80;5.97;;;;;;;;;;4996961;28;20039;-81